Time;durP1;ratioP1;P1;durP2;ratioP2;P2;SDS_P1;SDS_P2;PMS_P1;PMS_P2;Temp;Humidity;BMP_temperature;BMP_pressure;BME280_temperature;BME280_humidity;BME280_pressure;Samples;Min_cycle;Max_cycle;Signal;HPM_P1;HPM_P2
2023/09/30 05:56:11;;;;;;;19.10;14.90;;;;;;;11.89;82.53;97614.98;104650;1274;96859;-82
2023/09/30 05:59:08;;;;;;;21.60;15.00;;;;;;;11.94;82.80;97615.21;107059;1247;95953;-80
2023/09/30 06:02:15;;;;;;;16.70;14.90;;;;;;;11.97;82.80;97614.44;106525;1251;99854;-87
2023/09/30 06:05:22;;;;;;;18.40;14.60;;;;;;;12.00;82.95;97616.89;105260;1274;101179;-85
2023/09/30 07:50:12;;;;;;;31.20;21.20;;;;;;;14.02;84.38;97724.91;106245;1265;99735;-86
2023/09/30 07:53:19;;;;;;;32.80;22.50;;;;;;;14.07;84.31;97725.71;106340;1258;101188;-85
2023/09/30 07:56:26;;;;;;;28.90;21.20;;;;;;;14.13;84.42;97728.50;104812;1279;109412;-87
2023/09/30 07:59:34;;;;;;;24.80;20.20;;;;;;;14.17;84.58;97729.10;104158;1279;96451;-84
2023/09/30 08:40:10;;;;;;;16.60;14.50;;;;;;;15.63;85.48;97735.29;105532;1265;96682;-82
2023/09/30 08:43:11;;;;;;;32.80;21.20;;;;;;;15.68;85.56;97731.72;105791;1258;96787;-84
2023/09/30 08:46:18;;;;;;;48.20;23.10;;;;;;;15.72;85.35;97727.33;105440;1264;97872;-81
2023/09/30 10:50:50;;;;;;;22.70;15.80;;;;;;;17.45;78.00;97700.38;105332;1268;98550;-81
2023/09/30 10:54:00;;;;;;;18.90;15.00;;;;;;;17.46;77.74;97697.95;106040;1257;97224;-80
2023/09/30 10:57:13;;;;;;;20.50;16.00;;;;;;;17.46;77.45;97698.54;106758;1248;95878;-80
2023/09/30 11:00:29;;;;;;;20.60;15.50;;;;;;;17.47;77.65;97696.42;106104;1257;99367;-80
2023/09/30 11:03:38;;;;;;;19.60;15.40;;;;;;;17.49;77.37;97694.40;104882;1269;100350;-86
2023/09/30 11:29:58;;;;;;;19.00;15.40;;;;;;;18.06;75.83;97706.24;105447;1268;95778;-84
2023/09/30 11:33:07;;;;;;;19.70;16.00;;;;;;;17.98;75.88;97708.49;105754;1260;96868;-84
2023/09/30 11:36:17;;;;;;;18.60;15.70;;;;;;;17.90;75.78;97707.17;104797;1277;98313;-84
2023/09/30 11:39:24;;;;;;;21.40;15.40;;;;;;;17.84;75.75;97706.16;104019;1275;100295;-87
2023/09/30 11:42:38;;;;;;;17.20;15.20;;;;;;;17.79;75.70;97705.91;103610;1284;98833;-89
2023/09/30 12:10:05;;;;;;;23.80;18.40;;;;;;;17.81;75.99;97717.58;105022;1260;642330;-80
2023/09/30 12:13:15;;;;;;;23.20;17.30;;;;;;;17.77;76.01;97724.27;101629;1257;5644918;-81
2023/09/30 12:16:23;;;;;;;24.50;17.40;;;;;;;17.61;76.08;97728.11;105436;1264;96808;-81
2023/09/30 12:19:30;;;;;;;24.00;17.80;;;;;;;17.45;76.34;97728.80;104954;1277;98425;-85
2023/09/30 12:35:48;;;;;;;19.30;15.30;;;;;;;17.08;77.45;97736.44;101704;1294;642749;-82
2023/09/30 12:38:55;;;;;;;19.30;14.80;;;;;;;17.00;77.77;97737.71;102875;1286;95898;-83
2023/09/30 12:42:08;;;;;;;16.30;14.30;;;;;;;16.90;78.28;97737.76;101772;1296;96064;-83
2023/09/30 12:55:37;;;;;;;19.90;16.00;;;;;;;16.70;79.39;97752.46;101319;1303;642587;-86
2023/09/30 12:58:44;;;;;;;20.40;16.70;;;;;;;16.59;80.00;97752.58;104051;1276;96111;-83
2023/09/30 13:01:51;;;;;;;20.70;17.20;;;;;;;16.52;80.48;97749.56;103221;1283;96072;-83
2023/09/30 13:04:58;;;;;;;23.50;18.30;;;;;;;16.50;80.82;97747.06;106331;1283;98268;-82
2023/09/30 13:18:12;;;;;;;19.80;15.50;;;;;;;16.62;81.42;97746.02;101572;1299;642646;-81
2023/09/30 13:21:18;;;;;;;18.80;15.40;;;;;;;16.57;81.63;97747.48;102662;1289;95971;-81
2023/09/30 13:37:29;;;;;;;24.70;19.30;;;;;;;16.53;82.06;97744.29;101814;1310;636739;-83
2023/09/30 13:40:39;;;;;;;23.90;19.60;;;;;;;16.51;82.35;97745.89;103933;1274;97453;-81
2023/09/30 13:43:48;;;;;;;28.30;20.80;;;;;;;16.51;82.44;97741.52;102972;1283;97141;-81
2023/09/30 14:02:55;;;;;;;23.10;19.20;;;;;;;16.53;83.00;97729.30;101438;1300;636166;-82
2023/09/30 14:06:07;;;;;;;23.00;18.80;;;;;;;16.47;83.29;97728.74;103195;1285;97147;-82
2023/09/30 14:18:57;;;;;;;23.20;19.40;;;;;;;16.48;83.61;97726.84;101685;1300;636561;-83
2023/09/30 14:22:05;;;;;;;22.70;18.90;;;;;;;16.45;83.94;97731.89;103491;1287;95901;-83
2023/09/30 14:25:15;;;;;;;20.60;15.40;;;;;;;16.43;83.89;97731.54;102293;1295;97552;-83
2023/09/30 14:38:36;;;;;;;19.00;14.90;;;;;;;16.36;84.02;97734.01;101502;1307;640689;-82
2023/09/30 14:41:43;;;;;;;17.70;14.40;;;;;;;16.35;84.38;97736.59;103759;1279;96043;-81
2023/09/30 14:44:50;;;;;;;19.20;15.80;;;;;;;16.29;84.35;97741.15;103420;1283;96107;-83
2023/09/30 15:12:07;;;;;;;12.60;10.30;;;;;;;16.01;84.82;97778.33;101669;1262;5004702;-82
2023/09/30 15:15:14;;;;;;;11.20;9.50;;;;;;;15.87;85.06;97780.70;106124;1258;98370;-83
2023/09/30 15:18:21;;;;;;;11.20;8.90;;;;;;;15.77;84.92;97786.32;105100;1269;100250;-83
2023/09/30 15:21:19;;;;;;;12.80;11.00;;;;;;;15.67;84.87;97795.70;104706;1276;98396;-82
2023/09/30 15:48:25;;;;;;;20.40;13.40;;;;;;;15.41;85.19;97814.91;101635;1264;5004696;-92
2023/09/30 15:51:32;;;;;;;20.10;14.90;;;;;;;15.30;85.16;97810.31;106263;1257;98888;-82
2023/09/30 15:54:39;;;;;;;22.50;15.10;;;;;;;15.16;85.13;97817.98;106692;1263;100194;-87
2023/09/30 15:57:47;;;;;;;23.70;17.20;;;;;;;15.01;84.90;97823.88;105530;1263;100058;-83
2023/09/30 16:13:44;;;;;;;22.50;17.60;;;;;;;14.86;85.14;97846.09;101135;1299;640576;-81
2023/09/30 16:16:51;;;;;;;24.10;17.40;;;;;;;14.85;85.44;97847.61;103943;1275;96046;-81
2023/09/30 16:20:00;;;;;;;24.20;16.80;;;;;;;14.85;85.31;97851.59;103490;1278;95917;-80
2023/09/30 16:23:09;;;;;;;23.80;17.00;;;;;;;14.86;85.35;97854.05;103232;1292;98646;-79
2023/09/30 16:42:06;;;;;;;24.70;16.50;;;;;;;14.74;84.99;97887.86;101067;1306;639035;-83
2023/09/30 16:45:15;;;;;;;21.60;16.20;;;;;;;14.66;85.23;97886.23;102307;1289;96074;-82
2023/09/30 17:17:30;;;;;;;23.60;17.20;;;;;;;14.73;85.56;97916.85;105635;1263;96810;-79
2023/09/30 17:20:37;;;;;;;21.80;16.50;;;;;;;14.62;85.63;97919.80;105624;1263;98390;-80
2023/09/30 17:23:43;;;;;;;22.00;16.80;;;;;;;14.51;85.63;97918.10;104473;1270;100261;-83
2023/09/30 17:39:34;;;;;;;23.00;16.60;;;;;;;14.08;85.32;97931.15;101383;1301;638607;-83
2023/09/30 17:42:42;;;;;;;21.20;16.00;;;;;;;14.02;85.50;97938.27;104228;1268;96209;-84
2023/09/30 17:45:51;;;;;;;21.70;16.20;;;;;;;13.97;85.69;97941.23;103684;1276;96070;-84
2023/09/30 17:48:52;;;;;;;37.60;23.30;;;;;;;13.93;85.71;97948.39;103092;1282;97402;-83
2023/09/30 17:51:46;;;;;;;50.50;28.50;;;;;;;13.89;85.66;97953.60;99221;1282;5388480;-83
2023/09/30 18:21:12;;;;;;;34.80;24.20;;;;;;;13.69;85.30;97958.65;102135;1295;642572;-83
2023/09/30 18:24:20;;;;;;;35.40;23.80;;;;;;;13.70;85.52;97968.91;99141;1281;5353530;-88
2023/09/30 18:40:12;;;;;;;61.40;30.70;;;;;;;13.20;85.12;97987.57;102324;1287;638637;-83
2023/09/30 18:50:14;;;;;;;76.50;33.30;;;;;;;13.02;85.22;97990.33;102106;1302;636607;-83
2023/09/30 18:53:22;;;;;;;71.90;31.00;;;;;;;12.91;85.04;97988.71;102956;1286;95947;-83
2023/09/30 19:19:53;;;;;;;31.00;20.80;;;;;;;12.80;85.65;97997.88;106848;1268;94234;-80
2023/09/30 19:22:54;;;;;;;42.20;24.30;;;;;;;12.69;85.48;97994.89;105494;1263;95881;-81
2023/09/30 19:26:00;;;;;;;35.40;21.10;;;;;;;12.49;85.22;97996.94;104788;1270;98271;-80
2023/09/30 19:29:01;;;;;;;38.40;22.30;;;;;;;12.38;85.76;98000.07;103928;1282;100059;-81
2023/09/30 19:32:01;;;;;;;39.60;21.20;;;;;;;12.33;85.74;97995.77;103623;1290;99023;-80
2023/09/30 20:09:35;;;;;;;37.20;21.30;;;;;;;12.23;86.45;98011.39;105848;1263;98531;-80
2023/09/30 20:12:42;;;;;;;39.60;21.40;;;;;;;12.23;86.67;98010.13;105858;1257;95867;-78
2023/09/30 20:15:49;;;;;;;35.00;22.30;;;;;;;12.19;86.71;98011.22;105360;1263;96936;-85
2023/09/30 20:18:56;;;;;;;33.80;22.80;;;;;;;12.17;86.92;98010.64;108306;1264;99880;-87
2023/09/30 20:22:05;;;;;;;36.10;23.60;;;;;;;12.11;86.77;98009.01;104618;1276;100767;-87
2023/09/30 20:25:05;;;;;;;35.20;22.50;;;;;;;12.08;87.05;98014.08;103843;1280;100184;-87
2023/09/30 22:09:53;;;;;;;22.90;15.30;;;;;;;11.47;87.14;98042.88;105205;1264;99559;-82
2023/09/30 22:12:59;;;;;;;18.60;15.30;;;;;;;11.44;87.09;98053.27;105188;1261;100397;-84
2023/09/30 22:16:07;;;;;;;19.60;13.90;;;;;;;11.42;87.18;98057.59;103997;1289;98886;-79
2023/09/30 22:50:54;;;;;;;20.10;14.50;;;;;;;11.70;87.23;98063.64;106809;1266;99067;-83
2023/09/30 22:53:59;;;;;;;26.30;14.50;;;;;;;11.65;87.25;98055.67;105843;1261;98991;-80
2023/09/30 22:56:56;;;;;;;19.00;13.80;;;;;;;11.58;87.18;98058.39;105888;1259;96514;-80
2023/09/30 23:00:06;;;;;;;20.50;14.20;;;;;;;11.53;87.32;98059.62;105131;1266;96461;-80
2023/09/30 23:03:07;;;;;;;21.10;13.60;;;;;;;11.47;87.28;98057.69;104110;1282;97600;-78
2023/09/30 23:06:13;;;;;;;18.00;13.70;;;;;;;11.42;87.16;98057.50;104082;1280;101289;-82
2023/09/30 23:38:44;;;;;;;15.30;9.40;;;;;;;11.44;86.08;98062.98;107763;1265;95814;-88
2023/09/30 23:41:51;;;;;;;17.80;9.80;;;;;;;11.34;86.04;98060.66;106174;1259;98413;-90
2023/09/30 23:45:00;;;;;;;14.60;10.60;;;;;;;11.26;86.11;98059.07;105277;1263;101619;-90
2023/09/30 23:48:07;;;;;;;15.60;10.90;;;;;;;11.14;85.96;98053.19;104949;1280;99942;-90
2023/09/30 23:51:13;;;;;;;19.50;12.80;;;;;;;11.05;86.12;98055.46;103879;1281;96337;-80
